createdAt,value
2022-09-04T00:01:00.928Z,60748.28
2022-09-04T00:02:03.206Z,60702.09
2022-09-04T00:03:05.769Z,60772.37
2022-09-04T00:04:08.361Z,60698.08
2022-09-04T00:05:11.098Z,60663.95
2022-09-04T00:06:13.631Z,60577.60
2022-09-04T00:07:16.177Z,60571.58
2022-09-04T00:08:18.945Z,60493.27
2022-09-04T00:09:21.771Z,60441.07
2022-09-04T00:10:24.212Z,60400.91
2022-09-04T00:11:26.757Z,60415.97
2022-09-04T00:12:29.214Z,60449.10
2022-09-04T00:13:31.818Z,60440.06
2022-09-04T00:14:34.262Z,60498.29
2022-09-04T00:15:36.772Z,60640.85
2022-09-04T00:16:39.313Z,60577.60
2022-09-04T00:17:41.876Z,60556.52
2022-09-04T00:18:44.336Z,60588.65
2022-09-04T00:19:46.607Z,60640.85
2022-09-04T00:20:48.811Z,60562.54
2022-09-04T00:21:51.031Z,60541.46
2022-09-04T00:22:53.309Z,60546.48
2022-09-04T00:23:55.587Z,60649.89
2022-09-04T00:24:59.406Z,60556.52
2022-09-04T00:26:02.076Z,60578.61
2022-09-04T00:27:04.410Z,60630.81
2022-09-04T00:28:06.590Z,60605.71
2022-09-04T00:29:09.027Z,60516.36
2022-09-04T00:30:11.602Z,60499.30
2022-09-04T00:31:14.291Z,60409.95
2022-09-04T00:32:16.818Z,60346.70
2022-09-04T00:33:19.337Z,60298.51
2022-09-04T00:34:22.325Z,60380.83
2022-09-04T00:35:24.867Z,60401.91
2022-09-04T00:36:27.323Z,60428.02
2022-09-04T00:37:29.854Z,60455.12
2022-09-04T00:38:32.380Z,60419.98
2022-09-04T00:39:35.052Z,60506.32
2022-09-04T00:40:37.669Z,60518.37
2022-09-04T00:41:40.201Z,60479.21
2022-09-04T00:42:42.921Z,60370.79
2022-09-04T00:43:45.330Z,60405.93
2022-09-04T00:44:48.133Z,60493.27
2022-09-04T00:45:50.383Z,60615.75
2022-09-04T00:46:52.960Z,60680.01
2022-09-04T00:47:55.127Z,60757.32
2022-09-04T00:48:57.412Z,60872.78
2022-09-04T00:49:59.767Z,61023.39
2022-09-04T00:51:02.028Z,61188.05
2022-09-04T00:52:04.293Z,61336.67
2022-09-04T00:53:06.823Z,61426.04
2022-09-04T00:54:10.241Z,61505.37
2022-09-04T00:55:12.903Z,61501.35
2022-09-04T00:56:15.334Z,61504.36
2022-09-04T00:57:17.861Z,61518.42
2022-09-04T00:58:20.386Z,61550.55
2022-09-04T00:59:22.970Z,61515.41
2022-09-04T01:00:25.362Z,61506.37
2022-09-04T01:01:27.812Z,61487.29
2022-09-04T01:02:30.282Z,61445.12
2022-09-04T01:03:32.587Z,61354.74
2022-09-04T01:04:35.149Z,61305.54
2022-09-04T01:05:38.119Z,61238.26
2022-09-04T01:06:40.396Z,61195.08
2022-09-04T01:07:42.629Z,61128.81
2022-09-04T01:08:45.052Z,61036.44
2022-09-04T01:09:47.329Z,60964.14
2022-09-04T01:10:50.166Z,60871.77
2022-09-04T01:11:52.378Z,60788.44
2022-09-04T01:12:54.834Z,60684.02
2022-09-04T01:13:57.156Z,60636.84
2022-09-04T01:14:59.435Z,60518.37
2022-09-04T01:16:01.830Z,60514.36
2022-09-04T01:17:05.025Z,60444.08
2022-09-04T01:18:07.250Z,60332.64
2022-09-04T01:19:09.522Z,60307.55
2022-09-04T01:20:11.788Z,60333.65
2022-09-04T01:21:14.140Z,60356.74
2022-09-04T01:22:16.492Z,60409.95
2022-09-04T01:23:18.721Z,60411.95
2022-09-04T01:24:21.029Z,60394.89
2022-09-04T01:25:23.362Z,60393.88
2022-09-04T01:26:25.753Z,60486.25
2022-09-04T01:27:28.066Z,60527.41
2022-09-04T01:28:30.378Z,60586.64
2022-09-04T01:29:32.721Z,60590.66
2022-09-04T01:30:35.019Z,60611.74
2022-09-04T01:31:37.486Z,60624.79
2022-09-04T01:32:39.832Z,60610.73
2022-09-04T01:33:42.092Z,60534.43
2022-09-04T01:34:44.368Z,60439.06
2022-09-04T01:35:46.578Z,60349.71
2022-09-04T01:36:48.912Z,60297.51
2022-09-04T01:37:51.152Z,60191.10
2022-09-04T01:38:53.378Z,60137.89
2022-09-04T01:39:55.681Z,60203.14
2022-09-04T01:40:57.920Z,60143.92
2022-09-04T01:42:00.233Z,60055.58
2022-09-04T01:43:02.437Z,60056.58
2022-09-04T01:44:04.680Z,59967.24
2022-09-04T01:45:06.923Z,59946.16
2022-09-04T01:46:09.332Z,59945.16
2022-09-04T01:47:11.984Z,59885.94
2022-09-04T01:48:14.504Z,59988.32
2022-09-04T01:49:17.028Z,59964.23
2022-09-04T01:50:19.501Z,59982.30
2022-09-04T01:51:22.047Z,59934.12
2022-09-04T01:52:24.811Z,59890.96
2022-09-04T01:53:27.337Z,59821.70
2022-09-04T01:54:31.441Z,59846.79
2022-09-04T01:55:34.013Z,59826.71
2022-09-04T01:56:36.511Z,59744.41
2022-09-04T01:57:39.050Z,59763.48
2022-09-04T01:58:41.594Z,59724.33
2022-09-04T01:59:44.150Z,59675.15
2022-09-04T02:00:46.791Z,59600.87
2022-09-04T02:01:50.646Z,59649.05
2022-09-04T02:02:53.473Z,59682.18
2022-09-04T02:03:55.824Z,59701.25
2022-09-04T02:04:58.150Z,59634.00
2022-09-04T02:06:00.447Z,59593.85
2022-09-04T02:07:02.755Z,59768.50
2022-09-04T02:08:05.357Z,59835.75
2022-09-04T02:09:07.671Z,59935.12
2022-09-04T02:10:10.216Z,59983.30
2022-09-04T02:11:12.800Z,60086.70
2022-09-04T02:12:15.281Z,60139.90
2022-09-04T02:13:19.741Z,60096.74
2022-09-04T02:14:22.258Z,60094.73
2022-09-04T02:15:24.823Z,60017.44
2022-09-04T02:16:27.354Z,60003.38
2022-09-04T02:17:29.961Z,60017.44
2022-09-04T02:18:32.879Z,59918.06
2022-09-04T02:19:35.114Z,59977.28
2022-09-04T02:20:37.408Z,59958.21
2022-09-04T02:21:39.723Z,59963.23
2022-09-04T02:22:42.112Z,59875.90
2022-09-04T02:23:44.434Z,59861.85
2022-09-04T02:24:46.664Z,59863.86
2022-09-04T02:25:48.906Z,59895.97
2022-09-04T02:26:51.412Z,59910.03
2022-09-04T02:27:53.672Z,59874.89
2022-09-04T02:28:56.312Z,59855.82
2022-09-04T02:29:58.599Z,59904.00
2022-09-04T02:31:00.869Z,59887.95
2022-09-04T02:32:03.214Z,59896.98
2022-09-04T02:33:07.081Z,59889.95
2022-09-04T02:34:09.902Z,59938.13
2022-09-04T02:35:12.446Z,59965.24
2022-09-04T02:36:14.973Z,59949.18
2022-09-04T02:37:17.553Z,59957.21
2022-09-04T02:38:20.151Z,59930.11
2022-09-04T02:39:22.931Z,59878.91
2022-09-04T02:40:25.548Z,59863.86
2022-09-04T02:41:29.714Z,59760.46
2022-09-04T02:42:32.335Z,59703.25
2022-09-04T02:43:35.007Z,59678.16
2022-09-04T02:44:37.657Z,59808.65
2022-09-04T02:45:40.134Z,59832.74
2022-09-04T02:46:43.458Z,59799.61
2022-09-04T02:47:46.105Z,59823.70
2022-09-04T02:48:48.654Z,59872.89
2022-09-04T02:49:50.890Z,59872.89
2022-09-04T02:50:53.437Z,59940.14
2022-09-04T02:51:55.680Z,59946.16
2022-09-04T02:52:58.165Z,59955.20
2022-09-04T02:54:00.488Z,60002.38
2022-09-04T02:55:03.100Z,59970.25
2022-09-04T02:56:05.367Z,59942.15
2022-09-04T02:57:07.651Z,59952.19
2022-09-04T02:58:10.129Z,59875.90
2022-09-04T02:59:12.656Z,59906.01
2022-09-04T03:00:15.527Z,59902.00
2022-09-04T03:01:19.736Z,59838.76
2022-09-04T03:02:23.998Z,59909.02
2022-09-04T03:03:26.287Z,59905.01
2022-09-04T03:04:28.639Z,59984.31
2022-09-04T03:05:31.001Z,60077.66
2022-09-04T03:06:33.300Z,60258.36
2022-09-04T03:07:35.568Z,60483.23
2022-09-04T03:08:37.805Z,60615.75
2022-09-04T03:09:40.072Z,60683.02
2022-09-04T03:10:42.881Z,60732.21
2022-09-04T03:11:45.345Z,60783.42
2022-09-04T03:12:47.942Z,60781.41
2022-09-04T03:13:50.168Z,60724.18
2022-09-04T03:14:52.722Z,60686.03
2022-09-04T03:15:55.166Z,60666.96
2022-09-04T03:16:57.811Z,60570.57
2022-09-04T03:18:00.130Z,60542.46
2022-09-04T03:19:02.441Z,60533.43
2022-09-04T03:20:04.707Z,60488.25
2022-09-04T03:21:07.041Z,60554.51
2022-09-04T03:22:09.493Z,60598.68
2022-09-04T03:23:12.034Z,60661.94
2022-09-04T03:24:14.573Z,60656.91
2022-09-04T03:25:17.105Z,60672.98
2022-09-04T03:26:19.708Z,60704.10
2022-09-04T03:27:22.239Z,60728.20
2022-09-04T03:28:24.991Z,60815.55
2022-09-04T03:29:27.633Z,60876.79
2022-09-04T03:30:30.174Z,60964.14
2022-09-04T03:31:33.101Z,61066.56
2022-09-04T03:32:35.704Z,61137.85
2022-09-04T03:33:38.172Z,61183.04
2022-09-04T03:34:41.173Z,61247.30
2022-09-04T03:35:45.015Z,61305.54
2022-09-04T03:36:47.870Z,61387.88
2022-09-04T03:37:50.124Z,61530.47
2022-09-04T03:38:52.706Z,61556.58
2022-09-04T03:39:55.166Z,61634.91
2022-09-04T03:40:57.777Z,61716.25
2022-09-04T03:42:00.128Z,61701.19
2022-09-04T03:43:02.421Z,61752.41
2022-09-04T03:44:04.695Z,61762.45
2022-09-04T03:45:07.012Z,61774.50
2022-09-04T03:46:09.346Z,61762.45
2022-09-04T03:47:11.947Z,61716.25
2022-09-04T03:48:15.592Z,61697.17
2022-09-04T03:49:18.095Z,61666.04
2022-09-04T03:50:20.587Z,61683.11
2022-09-04T03:51:23.079Z,61608.80
2022-09-04T03:52:25.692Z,61584.70
2022-09-04T03:53:28.232Z,61538.50
2022-09-04T03:54:30.765Z,61508.38
2022-09-04T03:55:33.371Z,61473.23
2022-09-04T03:56:35.973Z,61491.31
2022-09-04T03:57:39.204Z,61429.05
2022-09-04T03:58:41.774Z,61418.00
2022-09-04T03:59:44.315Z,61453.15
2022-09-04T04:00:46.811Z,61514.40
2022-09-04T04:01:49.116Z,61638.93
2022-09-04T04:02:52.053Z,61779.52
2022-09-04T04:03:54.303Z,61879.95
2022-09-04T04:04:56.859Z,62000.46
2022-09-04T04:05:59.189Z,62083.82
2022-09-04T04:07:06.081Z,62118.98
2022-09-04T04:08:08.504Z,62102.91
2022-09-04T04:10:31.706Z,62566.94
2022-09-04T04:11:35.261Z,62587.03
2022-09-04T04:12:38.784Z,62616.16
2022-09-04T04:13:41.798Z,61588.71
2022-09-04T04:17:26.653Z,60885.83
2022-09-04T04:18:29.305Z,60758.32
2022-09-04T04:19:31.894Z,60751.29
2022-09-04T04:20:34.476Z,60678.00
2022-09-04T04:21:53.853Z,60620.77
2022-09-04T04:22:56.458Z,60584.63
2022-09-04T04:23:59.346Z,60552.50
2022-09-04T04:26:24.153Z,60501.30
2022-09-04T04:27:26.924Z,60446.09
2022-09-04T04:28:30.644Z,60418.98
2022-09-04T04:29:33.412Z,60452.11
2022-09-04T04:30:36.033Z,60450.10
2022-09-04T04:31:39.179Z,60456.12
2022-09-04T04:32:41.783Z,60446.09
2022-09-04T04:33:44.456Z,60466.17
2022-09-04T04:34:47.010Z,60427.01
2022-09-04T04:35:49.325Z,60409.95
2022-09-04T04:36:52.415Z,60390.87
2022-09-04T04:38:11.943Z,60356.74
2022-09-04T04:39:14.525Z,60338.67
2022-09-04T04:40:17.101Z,60270.40
2022-09-04T04:41:20.101Z,60277.43
2022-09-04T04:42:23.473Z,60210.17
2022-09-04T04:43:26.425Z,60241.29
2022-09-04T04:44:28.954Z,60179.05
2022-09-04T04:45:32.021Z,60170.02
2022-09-04T04:46:38.528Z,60218.20
2022-09-04T04:47:50.084Z,60146.93
2022-09-04T04:48:55.962Z,60191.10
2022-09-04T04:49:58.522Z,60220.21
2022-09-04T04:51:00.969Z,60257.36
2022-09-04T04:52:08.018Z,60273.42
2022-09-04T04:53:10.955Z,60273.42
2022-09-04T04:54:15.192Z,60319.59
2022-09-04T04:56:38.759Z,60359.75
2022-09-04T04:57:41.917Z,60371.80
2022-09-04T04:58:45.006Z,60370.79
2022-09-04T04:59:51.334Z,60348.71
2022-09-04T05:00:54.089Z,60384.85
2022-09-04T05:03:16.872Z,60365.77
2022-09-04T05:04:25.314Z,60396.89
2022-09-04T05:05:27.702Z,60451.11
2022-09-04T05:07:52.520Z,60488.25
2022-09-04T05:08:55.221Z,60466.17
2022-09-04T05:09:59.733Z,60437.05
2022-09-04T05:11:06.828Z,60466.17
2022-09-04T05:12:09.598Z,60442.07
2022-09-04T05:13:12.172Z,60437.05
2022-09-04T05:14:15.058Z,60475.20
2022-09-04T05:16:43.693Z,60408.94
2022-09-04T05:19:06.911Z,60436.05
2022-09-04T05:20:09.392Z,60437.05
2022-09-04T05:21:23.159Z,60479.21
2022-09-04T05:22:33.590Z,60514.36
2022-09-04T05:23:39.905Z,60523.39
2022-09-04T05:24:42.908Z,60564.55
2022-09-04T05:25:45.338Z,60558.53
2022-09-04T05:26:49.605Z,60558.53
2022-09-04T05:27:51.972Z,60554.51
2022-09-04T05:28:54.641Z,60524.39
2022-09-04T05:30:01.764Z,60482.23
2022-09-04T05:31:05.410Z,60423.00
2022-09-04T05:33:33.002Z,60348.71
2022-09-04T05:34:52.678Z,60274.42
2022-09-04T05:35:55.314Z,60242.30
2022-09-04T05:36:59.649Z,60160.98
2022-09-04T05:38:13.423Z,60131.87
2022-09-04T05:39:21.720Z,60016.43
2022-09-04T05:40:24.695Z,60025.46
2022-09-04T05:41:27.008Z,59946.16
2022-09-04T05:42:29.949Z,59937.13
2022-09-04T05:47:35.719Z,59877.91
2022-09-04T05:48:38.441Z,59846.79
2022-09-04T05:49:58.478Z,59793.59
2022-09-04T05:52:21.734Z,58628.40
2022-09-04T05:53:25.130Z,59865.86
2022-09-04T05:54:28.272Z,59862.85
2022-09-04T05:55:31.483Z,59863.86
2022-09-04T05:56:35.181Z,59818.68
2022-09-04T05:57:42.779Z,59849.80
2022-09-04T05:58:46.972Z,59887.95
2022-09-04T05:59:50.258Z,59934.12
2022-09-04T06:00:53.150Z,59971.26
2022-09-04T06:01:57.272Z,60027.47
2022-09-04T06:03:15.410Z,60119.82
2022-09-04T06:04:20.039Z,60203.14
2022-09-04T06:05:23.168Z,60325.62
2022-09-04T06:06:42.208Z,60415.97
2022-09-04T06:08:00.626Z,60464.16
2022-09-04T06:09:04.482Z,60562.54
2022-09-04T06:11:28.750Z,60783.42
2022-09-04T06:12:32.239Z,60960.13
2022-09-04T06:13:37.547Z,61013.34
2022-09-04T06:14:42.249Z,61109.73
2022-09-04T06:17:05.666Z,61657.00
2022-09-04T06:18:10.274Z,61867.89
2022-09-04T06:19:13.639Z,62000.46
2022-09-04T06:20:22.176Z,62117.97
2022-09-04T06:21:31.091Z,62261.59
2022-09-04T06:22:48.148Z,62317.84
2022-09-04T06:23:51.903Z,62387.14
2022-09-04T06:24:55.074Z,62445.40
2022-09-04T06:25:59.370Z,62432.34
2022-09-04T06:27:02.759Z,62471.52
2022-09-04T06:28:05.942Z,62429.33
2022-09-04T06:29:10.208Z,62430.33
2022-09-04T06:30:13.728Z,62364.04
2022-09-04T06:31:17.368Z,62360.02
2022-09-04T06:32:20.650Z,62291.73
2022-09-04T06:33:23.888Z,62238.49
2022-09-04T06:34:27.781Z,62176.22
2022-09-04T06:35:41.425Z,62139.06
2022-09-04T06:36:45.620Z,62089.85
2022-09-04T06:37:48.924Z,62045.66
2022-09-04T06:38:51.874Z,61952.26
2022-09-04T06:39:55.158Z,61871.91
2022-09-04T06:40:58.547Z,61818.69
2022-09-04T06:42:01.319Z,61835.76
2022-09-04T06:43:04.209Z,61798.60
2022-09-04T06:44:07.181Z,61765.46
2022-09-04T06:45:10.977Z,61741.36
2022-09-04T06:46:14.883Z,61709.22
2022-09-04T06:47:19.273Z,61719.27
2022-09-04T06:48:22.753Z,61716.25
2022-09-04T06:49:26.152Z,61698.18
2022-09-04T06:50:29.063Z,61754.41
2022-09-04T06:51:32.670Z,61729.31
2022-09-04T06:52:35.805Z,61771.49
2022-09-04T06:53:38.880Z,61788.56
2022-09-04T06:54:42.266Z,61837.77
2022-09-04T06:55:45.348Z,61839.78
2022-09-04T06:56:48.331Z,61868.90
2022-09-04T06:57:52.261Z,61914.09
2022-09-04T06:59:00.584Z,61930.16
2022-09-04T07:00:00.569Z,61928.15
2022-09-04T07:01:03.605Z,61966.32
2022-09-04T07:02:06.736Z,61944.22
2022-09-04T07:03:09.989Z,61956.27
2022-09-04T07:04:13.171Z,62000.46
2022-09-04T07:05:15.853Z,62015.53
2022-09-04T07:06:19.007Z,62078.80
2022-09-04T07:07:22.203Z,62082.82
2022-09-04T07:08:25.691Z,62074.79
2022-09-04T07:09:28.873Z,62105.92
2022-09-04T07:10:32.103Z,61939.20
2022-09-04T07:11:35.839Z,61927.15
2022-09-04T07:12:39.140Z,61889.99
2022-09-04T07:13:42.103Z,61864.88
2022-09-04T07:14:45.296Z,61854.84
2022-09-04T07:15:48.509Z,61848.82
2022-09-04T07:16:51.550Z,61835.76
2022-09-04T07:17:56.519Z,61823.71
2022-09-04T07:18:59.457Z,61811.66
2022-09-04T07:20:02.317Z,61807.64
2022-09-04T07:21:05.185Z,61806.64
2022-09-04T07:22:08.069Z,61825.71
2022-09-04T07:23:11.349Z,61857.85
2022-09-04T07:24:14.327Z,61914.09
2022-09-04T07:25:17.202Z,61936.19
2022-09-04T07:26:20.386Z,61943.22
2022-09-04T07:27:23.465Z,61967.32
2022-09-04T07:28:26.851Z,61961.29
2022-09-04T07:29:30.354Z,61971.34
2022-09-04T07:30:33.522Z,61985.40
2022-09-04T07:31:39.362Z,62000.46
2022-09-04T07:32:42.747Z,62042.64
2022-09-04T07:33:45.870Z,62052.69
2022-09-04T07:34:48.826Z,62013.52
2022-09-04T07:35:51.887Z,62003.48
2022-09-04T07:36:54.857Z,62026.58
2022-09-04T07:37:57.740Z,62007.49
2022-09-04T07:39:00.823Z,62008.50
2022-09-04T07:40:03.983Z,62011.51
2022-09-04T07:41:08.348Z,62000.46
2022-09-04T07:42:11.508Z,62018.54
2022-09-04T07:43:14.467Z,62000.46
2022-09-04T07:44:17.866Z,62024.57
2022-09-04T07:45:20.637Z,61992.43
2022-09-04T07:46:23.682Z,61983.39
2022-09-04T07:47:26.994Z,62009.50
2022-09-04T07:49:43.896Z,59532.62
2022-09-04T07:50:46.681Z,61960.29
2022-09-04T07:51:49.440Z,61966.32
2022-09-04T07:52:53.345Z,61925.14
2022-09-04T07:53:56.022Z,61952.26
2022-09-04T07:54:59.007Z,61925.14
2022-09-04T07:56:02.169Z,61961.29
2022-09-04T07:57:05.153Z,61979.37
2022-09-04T07:58:07.813Z,61952.26
2022-09-04T07:59:10.699Z,61915.10
2022-09-04T08:00:13.984Z,61947.23
2022-09-04T08:01:17.072Z,61941.21
2022-09-04T08:02:20.034Z,61932.17
2022-09-04T08:03:24.763Z,61909.07
2022-09-04T08:04:28.196Z,61906.06
2022-09-04T08:05:31.424Z,61879.95
2022-09-04T08:06:34.615Z,61895.01
2022-09-04T08:07:37.822Z,61896.02
2022-09-04T08:08:40.975Z,61884.97
2022-09-04T08:09:45.931Z,61858.86
2022-09-04T08:10:48.967Z,61865.89
2022-09-04T08:11:51.951Z,61846.81
2022-09-04T08:12:55.232Z,61792.57
2022-09-04T08:13:58.203Z,61812.66
2022-09-04T08:15:01.291Z,61787.55
2022-09-04T08:16:04.635Z,61789.56
2022-09-04T08:17:07.764Z,61787.55
2022-09-04T08:18:10.638Z,61724.29
2022-09-04T08:19:14.613Z,61769.48
2022-09-04T08:20:18.329Z,61771.49
2022-09-04T08:21:22.431Z,61793.58
2022-09-04T08:22:28.446Z,61755.42
2022-09-04T08:23:31.753Z,61736.34
2022-09-04T08:24:44.237Z,61697.17
2022-09-04T08:25:52.400Z,61631.89
2022-09-04T08:26:55.882Z,61587.71
2022-09-04T08:27:59.439Z,61547.54
2022-09-04T08:29:02.926Z,61543.52
2022-09-04T08:30:05.880Z,61494.32
2022-09-04T08:31:17.963Z,61455.16
2022-09-04T08:32:28.602Z,61367.80
2022-09-04T08:33:33.831Z,61260.35
2022-09-04T08:34:37.169Z,61165.96
2022-09-04T08:35:45.568Z,61101.70
2022-09-04T08:36:48.587Z,61015.35
2022-09-04T08:37:52.969Z,60950.09
2022-09-04T08:38:58.445Z,60901.89
2022-09-04T08:40:02.491Z,60817.55
2022-09-04T08:41:06.690Z,60832.62
2022-09-04T08:42:10.242Z,60778.40
2022-09-04T08:43:14.096Z,60735.23
2022-09-04T08:44:17.491Z,60716.15
2022-09-04T08:45:20.654Z,60725.19
2022-09-04T08:46:28.328Z,60693.06
2022-09-04T08:47:30.712Z,60727.20
2022-09-04T08:48:35.334Z,60700.09
2022-09-04T08:49:38.312Z,60717.16
2022-09-04T08:50:41.062Z,60695.07
2022-09-04T08:51:44.874Z,60682.02
2022-09-04T08:52:49.688Z,60680.01
2022-09-04T08:53:53.233Z,60671.98
2022-09-04T08:54:56.356Z,60664.95
2022-09-04T08:56:07.873Z,60664.95
2022-09-04T08:57:11.432Z,60664.95
2022-09-04T08:58:20.761Z,60656.91
2022-09-04T08:59:24.359Z,60670.97
2022-09-04T09:00:30.903Z,60644.87
2022-09-04T09:01:42.196Z,60637.84
2022-09-04T09:02:45.383Z,60642.86
2022-09-04T09:03:48.436Z,60607.72
2022-09-04T09:04:52.030Z,60610.73
2022-09-04T09:05:55.411Z,60639.85
2022-09-04T09:07:04.281Z,60617.76
2022-09-04T09:08:07.672Z,60627.80
2022-09-04T09:09:11.051Z,60624.79
2022-09-04T09:10:15.307Z,60594.67
2022-09-04T09:11:23.417Z,60617.76
2022-09-04T09:12:26.643Z,60608.73
2022-09-04T09:13:34.357Z,60662.94
2022-09-04T09:14:41.970Z,60638.84
2022-09-04T09:15:45.967Z,60666.96
2022-09-04T09:16:49.403Z,60622.78
2022-09-04T09:17:52.552Z,60640.85
2022-09-04T09:18:56.068Z,60681.01
2022-09-04T09:20:00.535Z,60719.16
2022-09-04T09:21:09.590Z,60754.30
2022-09-04T09:22:12.757Z,60742.25
2022-09-04T09:23:18.154Z,60779.40
2022-09-04T09:24:20.114Z,60810.53
2022-09-04T09:25:23.911Z,60819.56
2022-09-04T09:26:27.305Z,60884.82
2022-09-04T09:27:30.588Z,60902.90
2022-09-04T09:28:34.842Z,60873.78
2022-09-04T09:29:43.569Z,60941.05
2022-09-04T09:30:47.957Z,61036.44
2022-09-04T09:31:52.330Z,61069.57
2022-09-04T09:32:55.404Z,61100.70
2022-09-04T09:33:58.708Z,61116.77
2022-09-04T09:35:01.670Z,61125.80
2022-09-04T09:36:05.472Z,61205.12
2022-09-04T09:37:08.835Z,61223.20
2022-09-04T09:38:15.620Z,61272.40
2022-09-04T09:39:24.124Z,61323.61
2022-09-04T09:40:26.891Z,61347.71
2022-09-04T09:41:29.975Z,61348.71
2022-09-04T09:42:34.088Z,61434.07
2022-09-04T09:43:41.727Z,61428.05
2022-09-04T09:44:44.679Z,61441.10
2022-09-04T09:45:47.519Z,61464.20
2022-09-04T09:46:51.019Z,61440.09
2022-09-04T09:48:09.850Z,61451.14
2022-09-04T09:49:13.885Z,61460.18
2022-09-04T09:50:16.939Z,61476.25
2022-09-04T09:51:19.984Z,61478.25
2022-09-04T09:52:23.775Z,61551.56
2022-09-04T09:53:31.536Z,61594.74
2022-09-04T09:54:36.045Z,61651.98
2022-09-04T09:55:39.191Z,61710.23
2022-09-04T09:56:42.270Z,61728.30
2022-09-04T09:57:47.393Z,61787.55
2022-09-04T09:58:50.378Z,61830.74
2022-09-04T09:59:53.861Z,61875.93
2022-09-04T10:00:57.432Z,61928.15
2022-09-04T10:02:00.413Z,61981.38
2022-09-04T10:03:05.052Z,62023.56
2022-09-04T10:04:08.752Z,62080.81
2022-09-04T10:05:14.487Z,62086.84
2022-09-04T10:06:24.001Z,62102.91
2022-09-04T10:07:27.423Z,62100.90
2022-09-04T10:08:35.681Z,62141.07
2022-09-04T10:09:38.806Z,62089.85
2022-09-04T10:10:53.485Z,62068.76
2022-09-04T10:11:56.307Z,61987.41
2022-09-04T10:12:59.590Z,61930.16
2022-09-04T10:14:03.301Z,61779.52
2022-09-04T10:15:11.652Z,61733.32
2022-09-04T10:16:14.407Z,61605.79
2022-09-04T10:17:17.227Z,61502.36
2022-09-04T10:18:20.610Z,61399.93
2022-09-04T10:19:26.140Z,61265.37
2022-09-04T10:20:29.336Z,61102.71
2022-09-04T10:21:32.534Z,60995.27
2022-09-04T10:22:36.225Z,60897.88
2022-09-04T10:23:39.296Z,60851.69
2022-09-04T10:24:48.041Z,60785.43
2022-09-04T10:25:51.008Z,60741.25
2022-09-04T10:26:54.177Z,60759.32
2022-09-04T10:27:58.277Z,60732.21
2022-09-04T10:29:01.037Z,60700.09
2022-09-04T10:30:03.817Z,60650.89
2022-09-04T10:31:08.390Z,60649.89
2022-09-04T10:32:16.100Z,60603.71
2022-09-04T10:33:20.351Z,60600.69
2022-09-04T10:34:27.320Z,60584.63
2022-09-04T10:35:30.473Z,60498.29
2022-09-04T10:36:33.547Z,60452.11
2022-09-04T10:37:37.670Z,60421.99
2022-09-04T10:38:40.852Z,60377.82
2022-09-04T10:39:43.962Z,60302.53
2022-09-04T10:40:51.290Z,60265.38
2022-09-04T10:41:51.617Z,60205.15
2022-09-04T10:42:54.896Z,60185.07
2022-09-04T10:43:57.663Z,60132.87
2022-09-04T10:45:00.900Z,60101.76
2022-09-04T10:46:03.898Z,60095.73
2022-09-04T10:47:06.700Z,60047.55
2022-09-04T10:48:09.990Z,60031.49
2022-09-04T10:49:17.581Z,59955.20
2022-09-04T10:50:20.900Z,59960.22
2022-09-04T10:51:24.139Z,59921.07
2022-09-04T10:52:27.224Z,59820.69
2022-09-04T10:53:31.367Z,59800.62
2022-09-04T10:54:34.513Z,59713.29
2022-09-04T10:55:38.111Z,59663.11
2022-09-04T10:56:44.155Z,59610.91
2022-09-04T10:57:47.350Z,59599.87
2022-09-04T10:58:52.097Z,59586.82
2022-09-04T10:59:58.936Z,59530.61
2022-09-04T11:01:00.621Z,59442.29
2022-09-04T11:02:04.653Z,59426.23
2022-09-04T11:03:07.436Z,59382.07
2022-09-04T11:04:10.818Z,59305.79
2022-09-04T11:05:13.907Z,59256.62
2022-09-04T11:06:16.988Z,59232.53
2022-09-04T11:07:24.650Z,59133.17
2022-09-04T11:08:27.563Z,59066.94
2022-09-04T11:09:31.975Z,58973.61
2022-09-04T11:10:35.741Z,58897.34
2022-09-04T11:11:39.137Z,58830.10
2022-09-04T11:12:44.776Z,58741.79
2022-09-04T11:13:51.292Z,58609.33
2022-09-04T11:14:52.465Z,58375.54
2022-09-04T11:15:55.880Z,58210.98
2022-09-04T11:16:59.631Z,57963.16
2022-09-04T11:18:03.264Z,57749.46
2022-09-04T11:19:05.926Z,57546.81
2022-09-04T11:20:17.580Z,57373.27
2022-09-04T11:21:17.911Z,57205.74
2022-09-04T11:22:20.990Z,57068.32
2022-09-04T11:23:24.614Z,56900.81
2022-09-04T11:24:30.306Z,56799.51
2022-09-04T11:25:35.939Z,56607.94
2022-09-04T11:26:39.279Z,56242.88
2022-09-04T11:27:42.230Z,56142.59
2022-09-04T11:28:50.544Z,56015.24
2022-09-04T11:29:59.483Z,55837.75
2022-09-04T11:31:02.719Z,55174.98
2022-09-04T11:32:06.783Z,55102.79
2022-09-04T11:33:10.627Z,55032.61
2022-09-04T11:34:18.349Z,54998.52
2022-09-04T11:35:22.228Z,54943.39
2022-09-04T11:36:32.576Z,54860.18
2022-09-04T11:37:35.958Z,54846.14
2022-09-04T11:38:40.971Z,54826.09
2022-09-04T11:39:45.187Z,54767.95
2022-09-04T11:40:51.127Z,54767.95
2022-09-04T11:41:54.613Z,54718.82
2022-09-04T11:42:58.644Z,54722.83
2022-09-04T11:44:02.526Z,54682.73
2022-09-04T11:45:16.582Z,54640.63
2022-09-04T11:46:19.894Z,54645.64
2022-09-04T11:47:26.100Z,54603.54
2022-09-04T11:48:29.578Z,54547.40
2022-09-04T11:49:35.330Z,54545.40
2022-09-04T11:50:38.815Z,54557.43
2022-09-04T11:51:44.624Z,54530.36
2022-09-04T11:52:50.502Z,54502.29
2022-09-04T11:53:55.002Z,54503.30
2022-09-04T11:55:02.501Z,54482.25
2022-09-04T11:56:04.955Z,54496.28
2022-09-04T11:57:11.836Z,54458.19
2022-09-04T11:58:29.924Z,54457.19
2022-09-04T11:59:35.906Z,54407.07
2022-09-04T12:00:38.781Z,54441.15
2022-09-04T12:01:47.048Z,54419.09
2022-09-04T12:02:47.407Z,54385.02
2022-09-04T12:03:50.527Z,54407.07
2022-09-04T12:04:54.898Z,54363.96
2022-09-04T12:05:58.783Z,54383.01
2022-09-04T12:07:02.470Z,54339.91
2022-09-04T12:08:18.891Z,54368.98
2022-09-04T12:09:22.584Z,54348.93
2022-09-04T12:10:36.728Z,54370.98
2022-09-04T12:11:39.981Z,54364.96
2022-09-04T12:12:47.050Z,54390.03
2022-09-04T12:14:00.126Z,54338.91
2022-09-04T12:15:09.542Z,54334.89
2022-09-04T12:16:15.618Z,54360.96
2022-09-04T12:17:19.553Z,54345.92
2022-09-04T12:18:23.343Z,54347.93
2022-09-04T12:19:26.842Z,54369.98
2022-09-04T12:20:32.995Z,54335.90
2022-09-04T12:21:44.358Z,54336.90
2022-09-04T12:22:47.467Z,54320.86
2022-09-04T12:23:50.841Z,54334.89
2022-09-04T12:24:59.242Z,54322.87
2022-09-04T12:26:02.432Z,54320.86
2022-09-04T12:27:06.018Z,54342.91
2022-09-04T12:28:09.388Z,54378.00
2022-09-04T12:29:14.427Z,54355.95
2022-09-04T12:30:20.899Z,54345.92
2022-09-04T12:31:24.066Z,54341.91
2022-09-04T12:32:27.757Z,54330.89
2022-09-04T12:33:34.138Z,54355.95
2022-09-04T12:34:37.287Z,54336.90
2022-09-04T12:35:40.466Z,54328.88
2022-09-04T12:36:46.421Z,54293.80
2022-09-04T12:37:49.296Z,54329.88
2022-09-04T12:38:52.475Z,54332.89
2022-09-04T12:39:57.831Z,54315.85
2022-09-04T12:41:01.809Z,54331.89
2022-09-04T12:42:04.995Z,54358.95
2022-09-04T12:43:08.583Z,54331.89
2022-09-04T12:44:15.753Z,54339.91
2022-09-04T12:45:26.535Z,54330.89
2022-09-04T12:46:32.363Z,54344.92
2022-09-04T12:47:35.543Z,54363.96
2022-09-04T12:48:39.042Z,54358.95
2022-09-04T12:49:45.393Z,54352.94
2022-09-04T12:50:48.256Z,54347.93
2022-09-04T12:51:51.619Z,54327.88
2022-09-04T12:53:07.396Z,54357.95
2022-09-04T12:54:15.202Z,54335.90